Festivo — EAEQ — position and weather

sailwx.info

Track history (hours):
 
Tides and Currents Weather Stations Pressure Air Temp Water Temp Dewpoint Dewpoint Depression Visibility Wind Speed Wind Dir Waves Ship Positions

Festivo

Last reported at 2017-May-23 08:35 UTC. Time now 2017-May-26 16:35 UTC.
Position N 35°60' W 005°12'.

Length 136 m; draft 4.5 m.

Type: Cargo ship. MMSI: 225410000.

Date/timePositionNaut miles runAvg speedWind from/ knotsBaromVisibWave heightAir tempDewpointWater temp
2017-May-23 08:35N 35°60' W 005°12'112.2
2017-May-23 08:29N 35°59' W 005°13'611.8
2017-May-23 08:01N 35°55' W 005°18'2 3.2
2017-May-23 07:30N 35°54' W 005°19'0 0.0
2017-May-23 07:00N 35°54' W 005°19'0 0.0
2017-May-23 06:30N 35°54' W 005°19'0 0.0
2017-May-23 06:00N 35°54' W 005°19'0 0.0
2017-May-23 05:30N 35°54' W 005°19'0 0.0
2017-May-23 05:00N 35°54' W 005°19'1 1.2
2017-May-23 04:30N 35°54' W 005°19'3 6.3
2017-May-23 04:00N 35°56' W 005°17'3 6.6
2017-May-23 03:30N 35°58' W 005°13'4 7.7
2017-May-23 02:59N 36°01' W 005°10'  
2017-May-20 15:42N 35°52' W 004°59'210.6
2017-May-20 15:30N 35°53' W 005°02'510.4
2017-May-20 15:00N 35°54' W 005°08'510.3
2017-May-20 14:30N 35°55' W 005°14'4 4.4
2017-May-20 13:29N 35°54' W 005°19'0 0.0
2017-May-20 12:56N 35°54' W 005°19'0 0.0
2017-May-20 12:29N 35°54' W 005°19'0 0.0
2017-May-20 11:59N 35°54' W 005°19'0 0.0
2017-May-20 11:29N 35°54' W 005°19'0 0.0
2017-May-20 10:59N 35°54' W 005°19'0 0.0
2017-May-20 10:29N 35°54' W 005°19'0 0.0
2017-May-20 09:59N 35°54' W 005°19'0 0.0
2017-May-20 09:29N 35°54' W 005°19'0 0.0
2017-May-20 08:59N 35°54' W 005°19'0 0.0
2017-May-20 08:26N 35°54' W 005°19'0 0.0
2017-May-20 07:59N 35°54' W 005°19'0 0.0
2017-May-20 07:29N 35°54' W 005°19'0 0.0
2017-May-20 06:59N 35°54' W 005°19'0 0.0
2017-May-20 06:29N 35°54' W 005°19'0 0.0
2017-May-20 05:59N 35°54' W 005°19'0 0.0
2017-May-20 05:26N 35°54' W 005°19'0 0.0
2017-May-20 04:56N 35°54' W 005°19'1 1.5
2017-May-20 04:31N 35°54' W 005°19'4 7.6
2017-May-20 04:00N 35°57' W 005°17'4 8.8
2017-May-20 03:30N 35°60' W 005°12'1 0.0
2017-May-18 09:16N 35°58' W 005°12'312.7
2017-May-18 09:00N 35°56' W 005°15'4 8.3
2017-May-18 08:30N 35°54' W 005°19'0 0.0
2017-May-18 07:58N 35°54' W 005°19'0 0.0
2017-May-18 07:29N 35°54' W 005°19'0 0.0
2017-May-18 06:46N 35°54' W 005°19'0 0.0
2017-May-18 06:28N 35°54' W 005°19'0 0.0
2017-May-18 05:55N 35°54' W 005°19'0 0.0
2017-May-18 05:28N 35°54' W 005°19'1 2.0
2017-May-18 05:00N 35°54' W 005°18'510.5
2017-May-18 04:30N 35°59' W 005°15'510.4
2017-May-18 04:00N 36°02' W 005°11'  
Track history (hours):
 
Tides and Currents Weather Stations Pressure Air Temp Water Temp Dewpoint Dewpoint Depression Visibility Wind Speed Wind Dir Waves Ship Positions

Festivo

Last reported at 2017-May-23 08:35 UTC. Time now 2017-May-26 16:35 UTC.
Position N 35°60' W 005°12'.

Length 136 m; draft 4.5 m.

Type: Cargo ship. MMSI: 225410000.

Date/timePositionNaut miles runAvg speedWind from/ knotsBaromVisibWave heightAir tempDewpointWater temp
2017-May-23 08:35N 35°60' W 005°12'112.2
2017-May-23 08:29N 35°59' W 005°13'611.8
2017-May-23 08:01N 35°55' W 005°18'2 3.2
2017-May-23 07:30N 35°54' W 005°19'0 0.0
2017-May-23 07:00N 35°54' W 005°19'0 0.0
2017-May-23 06:30N 35°54' W 005°19'0 0.0
2017-May-23 06:00N 35°54' W 005°19'0 0.0
2017-May-23 05:30N 35°54' W 005°19'0 0.0
2017-May-23 05:00N 35°54' W 005°19'1 1.2
2017-May-23 04:30N 35°54' W 005°19'3 6.3
2017-May-23 04:00N 35°56' W 005°17'3 6.6
2017-May-23 03:30N 35°58' W 005°13'4 7.7
2017-May-23 02:59N 36°01' W 005°10'  
2017-May-20 15:42N 35°52' W 004°59'210.6
2017-May-20 15:30N 35°53' W 005°02'510.4
2017-May-20 15:00N 35°54' W 005°08'510.3
2017-May-20 14:30N 35°55' W 005°14'4 4.4
2017-May-20 13:29N 35°54' W 005°19'0 0.0
2017-May-20 12:56N 35°54' W 005°19'0 0.0
2017-May-20 12:29N 35°54' W 005°19'0 0.0
2017-May-20 11:59N 35°54' W 005°19'0 0.0
2017-May-20 11:29N 35°54' W 005°19'0 0.0
2017-May-20 10:59N 35°54' W 005°19'0 0.0
2017-May-20 10:29N 35°54' W 005°19'0 0.0
2017-May-20 09:59N 35°54' W 005°19'0 0.0
2017-May-20 09:29N 35°54' W 005°19'0 0.0
2017-May-20 08:59N 35°54' W 005°19'0 0.0
2017-May-20 08:26N 35°54' W 005°19'0 0.0
2017-May-20 07:59N 35°54' W 005°19'0 0.0
2017-May-20 07:29N 35°54' W 005°19'0 0.0
2017-May-20 06:59N 35°54' W 005°19'0 0.0
2017-May-20 06:29N 35°54' W 005°19'0 0.0
2017-May-20 05:59N 35°54' W 005°19'0 0.0
2017-May-20 05:26N 35°54' W 005°19'0 0.0
2017-May-20 04:56N 35°54' W 005°19'1 1.5
2017-May-20 04:31N 35°54' W 005°19'4 7.6
2017-May-20 04:00N 35°57' W 005°17'4 8.8
2017-May-20 03:30N 35°60' W 005°12'1 0.0
2017-May-18 09:16N 35°58' W 005°12'312.7
2017-May-18 09:00N 35°56' W 005°15'4 8.3
2017-May-18 08:30N 35°54' W 005°19'0 0.0
2017-May-18 07:58N 35°54' W 005°19'0 0.0
2017-May-18 07:29N 35°54' W 005°19'0 0.0
2017-May-18 06:46N 35°54' W 005°19'0 0.0
2017-May-18 06:28N 35°54' W 005°19'0 0.0
2017-May-18 05:55N 35°54' W 005°19'0 0.0
2017-May-18 05:28N 35°54' W 005°19'1 2.0
2017-May-18 05:00N 35°54' W 005°18'510.5
2017-May-18 04:30N 35°59' W 005°15'510.4
2017-May-18 04:00N 36°02' W 005°11'  

Dump ship's entire track history